Track Шепелев Николай

Time Latitude Longitude Accuracy (66% radius in meters) Altitude (meters) Speed (km/hour) Bearing (degrees) Battery (%) GPS flag
13:57:10 59.876653 29.925235 3.2999999523163 7.6 0 323.2200012207 68 1 delete
13:57:07 59.876630 29.925282 3.0999999046326 8.6 0.97333973646164 315.76000976562 68 1 delete
13:56:58 59.876722 29.925357 3.5999999046326 13 2.2133054733276 302.51998901367 68 1 delete
13:56:55 59.876713 29.925352 3.7999999523163 15 2.2127907276154 343.26998901367 68 1 delete
13:56:51 59.876625 29.925267 3.2999999523163 17.4 0 244.91999816895 68 1 delete
13:56:46 59.876488 29.925268 2.5999999046326 17.4 0 244.91999816895 68 1 delete
13:56:39 59.876467 29.925070 2.5 25.6 1.1478306055069 50.439998626709 68 1 delete
13:56:34 59.876402 29.925038 3.2999999523163 36.3 2.1350677013397 196.10000610352 68 1 delete
13:56:32 59.876398 29.924895 3.4000000953674 37.9 2.4866230487823 78.419998168945 68 1 delete
13:56:28 59.876380 29.924718 3.4000000953674 36.6 2.6153035163879 80.150001525879 68 1 delete
13:56:24 59.876362 29.924532 3.5999999046326 33.6 4.1491756439209 79.860000610352 68 1 delete
13:56:22 59.876318 29.924357 3.7999999523163 31.2 0.60840165615082 105.73000335693 68 1 delete
13:56:18 59.876273 29.924133 3.7999999523163 22.7 7.5437688827515 245.9700012207 68 1 delete
13:56:17 59.876335 29.924403 3.7000000476837 21.6 6.7541851997375 244.03999328613 68 1 delete
13:56:15 59.876438 29.924573 2.9000000953674 17.9 5.9223937988281 258.66000366211 68 1 delete
13:56:12 59.876445 29.924770 2.7000000476837 16.2 0 262.98999023438 68 1 delete
13:56:11 59.876430 29.924753 2.5999999046326 15.4 0.82973223924637 262.98999023438 68 1 delete
13:56:02 59.876432 29.924773 2.5999999046326 14.4 0.56670916080475 95.319999694824 68 1 delete
13:55:52 59.876422 29.924937 2.9000000953674 13.1 1.2070236206055 173.58999633789 68 1 delete
13:55:41 59.876485 29.925102 2.7999999523163 10.7 1.5230630636215 70.25 68 1 delete
13:55:40 59.876485 29.925052 2.7000000476837 11.5 2.3558835983276 79.75 68 1 delete
13:55:38 59.876488 29.924883 2.7000000476837 12.8 3.8784320354462 104.30999755859 68 1 delete
13:55:36 59.876498 29.924665 2.5999999046326 12.8 7.1685361862183 100.87000274658 68 1 delete
13:55:29 59.876475 29.924465 2.5 13.1 0 88.690002441406 68 1 delete
13:55:24 59.876497 29.924485 2.5 12.9 0.73914110660553 88.690002441406 68 1 delete
13:55:18 59.876460 29.924588 2.5999999046326 8.1 1.5081361532211 340.5 68 1 delete
13:55:08 59.876405 29.924595 2.7000000476837 8.8 1.8576325178146 73.319999694824 68 1 delete
13:55:03 59.876405 29.924537 2.7999999523163 7.1 2.5195653438568 277.25 68 1 delete
13:54:59 59.876353 29.924713 2.7999999523163 6.3 3.297310590744 259.44000244141 68 1 delete
13:54:58 59.876353 29.924795 2.7999999523163 6.6 3.1953954696655 262.83999633789 68 1 delete
13:54:52 59.876373 29.924917 2.9000000953674 3.4 2.7197921276093 78.73999786377 68 1 delete
13:54:48 59.876332 29.924818 2.7999999523163 3.2 0.80039304494858 71.430000305176 68 1 delete
13:54:44 59.876360 29.924697 2.9000000953674 4.2 0 277.5299987793 68 1 delete
13:54:41 59.876463 29.924793 2.7999999523163 5.8 7.1865515708923 277.5299987793 68 1 delete
13:54:37 59.876438 29.925012 2.4000000953674 5.1 0 207.75 68 1 delete
13:54:36 59.876432 29.925070 2.4000000953674 5.2 0 207.75 68 1 delete
13:54:30 59.876432 29.925233 2.4000000953674 13.4 0.80965805053711 63.650001525879 68 1 delete
13:54:26 59.876423 29.925175 2.5 16.4 0 85.419998168945 68 1 delete
13:54:16 59.876417 29.925065 3.2000000476837 22.2 0 0 68 1 delete
13:54:10 59.876352 29.925130 4.0999999046326 7.6 0 0 68 1 delete
13:54:09 59.876450 29.925075 4.9000000953674 25.2 0 0 68 1 delete
13:54:08 59.876453 29.925330 6.0999999046326 24.8 0 0 68 1 delete
13:54:05 59.876500 29.925737 10.39999961853 -19.1 0 0 68 1 delete
14:53:55 59.876403 29.925207 9.8000001907349 41 0.24964027106762 25.770000457764 68 0 delete
14:53:43 59.876403 29.925207 9.8000001907349 41 0.24964027106762 25.770000457764 68 0 delete
14:53:32 59.876403 29.925207 9.8000001907349 41 0.24964027106762 25.770000457764 68 0 delete
14:53:16 59.876403 29.925207 9.8000001907349 41 0.24964027106762 25.770000457764 68 0 delete
14:53:05 59.876403 29.925207 9.8000001907349 41 0.24964027106762 25.770000457764 68 0 delete
14:52:55 59.876403 29.925207 9.8000001907349 41 0.24964027106762 25.770000457764 68 0 delete
14:52:44 59.876403 29.925207 9.8000001907349 41 0.24964027106762 25.770000457764 68 0 delete